Time;durP1;ratioP1;P1;durP2;ratioP2;P2;SDS_P1;SDS_P2;PMS_P1;PMS_P2;Temp;Humidity;BMP_temperature;BMP_pressure;BME280_temperature;BME280_humidity;BME280_pressure;Samples;Min_cycle;Max_cycle;Signal;HPM_P1;HPM_P2
2023/05/16 00:01:50;;;;;;;0.10;0.10;;;;;;;;;;4955176;28;20595;-78
2023/05/16 00:04:36;;;;;;;0.10;0.10;;;;;;;;;;4954467;28;20043;-77
2023/05/16 00:07:25;;;;;;;0.10;0.10;;;;;;;;;;4957291;28;20397;-78
2023/05/16 00:10:11;;;;;;;0.10;0.10;;;;;;;;;;4956823;28;20100;-78
2023/05/16 00:12:56;;;;;;;0.10;0.10;;;;;;;;;;4954794;28;20635;-77
2023/05/16 00:15:43;;;;;;;0.10;0.10;;;;;;;;;;4956892;28;20448;-75
2023/05/16 00:18:29;;;;;;;0.17;0.17;;;;;;;;;;4956279;28;20031;-76
2023/05/16 00:21:14;;;;;;;0.13;0.13;;;;;;;;;;4956183;28;20322;-77
2023/05/16 00:24:00;;;;;;;0.10;0.10;;;;;;;;;;4954700;28;20070;-77
2023/05/16 00:26:46;;;;;;;0.10;0.10;;;;;;;;;;4955254;28;20404;-77
2023/05/16 00:29:31;;;;;;;0.10;0.10;;;;;;;;;;4955790;28;20420;-77
2023/05/16 00:32:17;;;;;;;0.10;0.10;;;;;;;;;;4940592;28;20039;-76
2023/05/16 00:35:03;;;;;;;0.10;0.10;;;;;;;;;;4954768;28;20086;-77
2023/05/16 00:37:49;;;;;;;0.10;0.10;;;;;;;;;;4937143;28;20097;-76
2023/05/16 00:40:35;;;;;;;0.10;0.10;;;;;;;;;;4955486;28;20035;-77
2023/05/16 00:43:21;;;;;;;0.10;0.10;;;;;;;;;;4955146;28;20093;-76
2023/05/16 00:46:09;;;;;;;0.10;0.10;;;;;;;;;;4957014;28;20423;-77
2023/05/16 00:48:55;;;;;;;0.10;0.10;;;;;;;;;;4955208;28;20049;-77
2023/05/16 00:51:41;;;;;;;0.10;0.10;;;;;;;;;;4957375;28;20130;-77
2023/05/16 00:54:28;;;;;;;0.10;0.10;;;;;;;;;;4955014;28;20492;-77
2023/05/16 00:57:15;;;;;;;0.10;0.10;;;;;;;;;;4956258;28;20396;-76
2023/05/16 01:00:04;;;;;;;0.10;0.10;;;;;;;;;;4951962;28;20031;-77
2023/05/16 01:02:53;;;;;;;0.10;0.10;;;;;;;;;;4953499;28;20045;-76
2023/05/16 01:05:38;;;;;;;0.10;0.10;;;;;;;;;;4955546;28;20090;-76
2023/05/16 01:08:25;;;;;;;0.20;0.20;;;;;;;;;;4955100;28;20053;-77
2023/05/16 01:11:13;;;;;;;0.17;0.17;;;;;;;;;;4954681;28;20058;-77
2023/05/16 01:14:18;;;;;;;0.10;0.10;;;;;;;;;;4953608;28;20037;-77
2023/05/16 01:17:12;;;;;;;0.10;0.10;;;;;;;;;;4955233;28;20038;-77
2023/05/16 01:20:07;;;;;;;0.08;0.08;;;;;;;;;;4939462;28;20030;-77
2023/05/16 01:23:13;;;;;;;0.10;0.10;;;;;;;;;;4954171;28;20588;-77
2023/05/16 01:26:18;;;;;;;0.10;0.10;;;;;;;;;;4944414;28;20030;-76
2023/05/16 01:29:04;;;;;;;0.10;0.10;;;;;;;;;;4944902;28;20113;-77
2023/05/16 01:31:50;;;;;;;0.00;0.00;;;;;;;;;;4958616;28;20257;-77
2023/05/16 01:34:35;;;;;;;0.10;0.10;;;;;;;;;;4943202;28;20061;-77
2023/05/16 01:37:28;;;;;;;0.10;0.10;;;;;;;;;;4959307;28;20611;-77
2023/05/16 01:40:16;;;;;;;0.10;0.10;;;;;;;;;;4959391;28;20331;-76
2023/05/16 01:43:05;;;;;;;0.10;0.10;;;;;;;;;;4958369;28;20483;-77
2023/05/16 01:45:54;;;;;;;0.17;0.17;;;;;;;;;;4958914;28;21111;-77
2023/05/16 01:48:49;;;;;;;0.10;0.10;;;;;;;;;;4942429;28;20432;-77
2023/05/16 01:51:38;;;;;;;0.10;0.10;;;;;;;;;;4960316;28;20054;-77
2023/05/16 01:54:25;;;;;;;0.17;0.17;;;;;;;;;;4960455;28;20034;-77
2023/05/16 01:57:11;;;;;;;0.10;0.10;;;;;;;;;;4959372;28;20093;-77
2023/05/16 01:59:58;;;;;;;0.10;0.10;;;;;;;;;;4942839;28;20363;-77
2023/05/16 02:02:43;;;;;;;0.10;0.10;;;;;;;;;;4955812;28;20034;-77
2023/05/16 02:05:29;;;;;;;0.17;0.17;;;;;;;;;;4962247;28;20463;-78
2023/05/16 02:08:15;;;;;;;0.10;0.10;;;;;;;;;;4959472;28;20535;-78
2023/05/16 02:11:01;;;;;;;0.10;0.10;;;;;;;;;;4958497;28;20039;-78
2023/05/16 02:13:46;;;;;;;0.13;0.13;;;;;;;;;;4956447;28;20030;-78
2023/05/16 02:16:32;;;;;;;0.10;0.10;;;;;;;;;;4945333;28;20034;-78
2023/05/16 02:19:18;;;;;;;0.10;0.10;;;;;;;;;;4940930;28;20035;-78
2023/05/16 02:22:04;;;;;;;0.10;0.10;;;;;;;;;;4942915;28;20264;-78
2023/05/16 02:24:52;;;;;;;0.20;0.20;;;;;;;;;;4956073;28;20039;-78
2023/05/16 02:27:38;;;;;;;0.13;0.13;;;;;;;;;;4941100;28;20038;-78
2023/05/16 02:30:24;;;;;;;0.10;0.10;;;;;;;;;;4958102;28;20047;-77
2023/05/16 02:33:10;;;;;;;0.10;0.10;;;;;;;;;;4957663;28;20074;-77
2023/05/16 02:35:55;;;;;;;0.10;0.10;;;;;;;;;;4958599;28;20098;-77
2023/05/16 02:38:41;;;;;;;0.10;0.10;;;;;;;;;;4958682;28;20073;-77
2023/05/16 02:41:27;;;;;;;0.10;0.10;;;;;;;;;;4943093;28;20292;-77
2023/05/16 02:44:13;;;;;;;0.10;0.10;;;;;;;;;;4958528;28;20049;-77
2023/05/16 02:47:00;;;;;;;0.10;0.10;;;;;;;;;;4957828;28;20030;-77
2023/05/16 02:49:46;;;;;;;0.10;0.10;;;;;;;;;;4957451;28;20392;-77
2023/05/16 02:52:31;;;;;;;0.10;0.10;;;;;;;;;;4954388;28;20590;-77
2023/05/16 02:55:17;;;;;;;0.10;0.10;;;;;;;;;;4956611;28;20046;-77
2023/05/16 02:58:03;;;;;;;0.10;0.10;;;;;;;;;;4956467;28;20483;-77
2023/05/16 03:00:49;;;;;;;0.10;0.10;;;;;;;;;;4953538;28;20110;-77
2023/05/16 03:03:37;;;;;;;0.10;0.10;;;;;;;;;;4937444;28;20037;-77
2023/05/16 03:06:23;;;;;;;0.10;0.10;;;;;;;;;;4957932;28;20037;-77
2023/05/16 03:09:09;;;;;;;0.10;0.10;;;;;;;;;;4956114;28;20578;-77
2023/05/16 03:11:55;;;;;;;0.10;0.10;;;;;;;;;;4956432;28;20043;-77
2023/05/16 03:14:40;;;;;;;0.10;0.10;;;;;;;;;;4957610;28;20344;-77
2023/05/16 03:17:26;;;;;;;0.10;0.10;;;;;;;;;;4959040;28;20038;-77
2023/05/16 03:20:12;;;;;;;0.10;0.10;;;;;;;;;;4958792;28;20562;-77
2023/05/16 03:22:58;;;;;;;0.10;0.10;;;;;;;;;;4957126;28;20630;-77
2023/05/16 03:25:45;;;;;;;0.10;0.10;;;;;;;;;;4957933;28;20046;-77
2023/05/16 03:28:30;;;;;;;0.10;0.10;;;;;;;;;;4949706;28;20073;-78
2023/05/16 03:31:16;;;;;;;0.10;0.10;;;;;;;;;;4938375;28;20046;-77
2023/05/16 03:34:02;;;;;;;0.10;0.10;;;;;;;;;;4935650;28;20555;-77
2023/05/16 03:36:48;;;;;;;0.10;0.10;;;;;;;;;;4935538;28;20054;-77
2023/05/16 03:39:34;;;;;;;0.10;0.10;;;;;;;;;;4923135;28;20030;-77
2023/05/16 03:42:20;;;;;;;0.10;0.10;;;;;;;;;;4923467;28;20039;-77
2023/05/16 03:45:06;;;;;;;0.10;0.10;;;;;;;;;;4937295;28;20066;-77
2023/05/16 03:47:52;;;;;;;0.10;0.10;;;;;;;;;;4936809;28;20094;-77
2023/05/16 03:50:38;;;;;;;0.10;0.10;;;;;;;;;;4923914;28;20027;-77
2023/05/16 03:53:24;;;;;;;0.10;0.10;;;;;;;;;;4936947;28;20043;-77
2023/05/16 03:56:09;;;;;;;0.10;0.10;;;;;;;;;;4939858;28;20047;-77
2023/05/16 03:58:55;;;;;;;0.10;0.10;;;;;;;;;;4936610;28;20515;-76
2023/05/16 04:01:41;;;;;;;0.15;0.15;;;;;;;;;;4939369;28;20073;-77
2023/05/16 04:04:27;;;;;;;0.10;0.10;;;;;;;;;;4939202;28;20057;-76
2023/05/16 04:07:13;;;;;;;0.10;0.10;;;;;;;;;;4939744;28;20440;-76
2023/05/16 04:09:58;;;;;;;0.10;0.10;;;;;;;;;;4938004;28;20484;-75
2023/05/16 04:12:44;;;;;;;0.10;0.10;;;;;;;;;;4937577;28;20034;-75
2023/05/16 04:15:30;;;;;;;0.10;0.10;;;;;;;;;;4939274;28;20031;-75
2023/05/16 04:18:15;;;;;;;0.10;0.10;;;;;;;;;;4939585;28;20136;-76
2023/05/16 04:21:01;;;;;;;0.10;0.10;;;;;;;;;;4937849;28;20035;-76
2023/05/16 04:23:47;;;;;;;0.10;0.10;;;;;;;;;;4937240;28;20083;-77
2023/05/16 04:26:33;;;;;;;0.10;0.10;;;;;;;;;;4937931;28;20097;-77
2023/05/16 04:29:20;;;;;;;0.10;0.10;;;;;;;;;;4939546;28;20094;-76
2023/05/16 04:32:06;;;;;;;0.10;0.10;;;;;;;;;;4938308;28;20042;-76
2023/05/16 04:34:53;;;;;;;0.10;0.10;;;;;;;;;;4936212;28;20142;-75
2023/05/16 04:37:38;;;;;;;0.10;0.10;;;;;;;;;;4936953;28;20294;-76
2023/05/16 04:40:24;;;;;;;0.10;0.10;;;;;;;;;;4938505;28;20468;-76
2023/05/16 04:43:10;;;;;;;0.10;0.10;;;;;;;;;;4939643;28;20038;-74
2023/05/16 04:45:57;;;;;;;0.10;0.10;;;;;;;;;;4938477;28;20384;-77
2023/05/16 04:48:43;;;;;;;0.10;0.10;;;;;;;;;;4936011;28;20679;-76
2023/05/16 04:51:29;;;;;;;0.10;0.10;;;;;;;;;;4938469;28;20463;-77
2023/05/16 04:54:17;;;;;;;0.10;0.10;;;;;;;;;;4920736;28;20487;-76
2023/05/16 04:57:03;;;;;;;0.10;0.10;;;;;;;;;;4938352;28;20522;-77
2023/05/16 04:59:48;;;;;;;0.10;0.10;;;;;;;;;;4939524;28;20363;-78
2023/05/16 05:02:35;;;;;;;0.10;0.10;;;;;;;;;;4943191;28;20031;-77
2023/05/16 05:05:21;;;;;;;0.20;0.20;;;;;;;;;;4942257;28;20070;-77
2023/05/16 05:08:06;;;;;;;0.10;0.10;;;;;;;;;;4940271;28;20555;-77
2023/05/16 05:10:54;;;;;;;0.10;0.10;;;;;;;;;;4942758;28;20041;-78
2023/05/16 05:13:40;;;;;;;0.10;0.10;;;;;;;;;;4941732;28;20085;-77
2023/05/16 05:16:25;;;;;;;0.10;0.10;;;;;;;;;;4941457;28;20046;-77
2023/05/16 05:19:11;;;;;;;0.10;0.10;;;;;;;;;;4925074;28;20102;-75
2023/05/16 05:21:57;;;;;;;0.10;0.10;;;;;;;;;;4943263;28;20046;-76
2023/05/16 05:24:43;;;;;;;0.10;0.10;;;;;;;;;;4941229;28;20484;-76
2023/05/16 05:27:28;;;;;;;0.10;0.10;;;;;;;;;;4942294;28;20095;-76
2023/05/16 05:30:15;;;;;;;0.10;0.10;;;;;;;;;;4940678;28;20249;-76
2023/05/16 05:33:00;;;;;;;0.10;0.10;;;;;;;;;;4939892;28;20046;-76
2023/05/16 05:35:46;;;;;;;0.10;0.10;;;;;;;;;;4939753;28;20077;-76
2023/05/16 05:38:32;;;;;;;0.10;0.10;;;;;;;;;;4940935;28;20400;-76
2023/05/16 05:41:18;;;;;;;0.10;0.10;;;;;;;;;;4941064;28;20040;-75
2023/05/16 05:44:03;;;;;;;0.10;0.10;;;;;;;;;;4940880;28;20043;-76
2023/05/16 05:46:50;;;;;;;0.10;0.10;;;;;;;;;;4950116;28;20066;-76
2023/05/16 05:49:36;;;;;;;0.10;0.10;;;;;;;;;;4939088;28;20039;-77
2023/05/16 05:52:21;;;;;;;0.10;0.10;;;;;;;;;;4940898;28;20050;-77
2023/05/16 05:55:07;;;;;;;0.17;0.17;;;;;;;;;;4940402;28;20027;-76
2023/05/16 05:57:53;;;;;;;0.10;0.10;;;;;;;;;;4941508;28;20718;-76
2023/05/16 06:00:39;;;;;;;0.10;0.10;;;;;;;;;;4940430;28;20031;-76
2023/05/16 06:03:24;;;;;;;0.15;0.15;;;;;;;;;;4940110;28;20130;-76
2023/05/16 06:06:10;;;;;;;0.10;0.10;;;;;;;;;;4940636;28;20635;-76
2023/05/16 06:08:56;;;;;;;0.10;0.10;;;;;;;;;;4939235;28;20130;-76
2023/05/16 06:11:44;;;;;;;0.10;0.10;;;;;;;;;;4937111;28;20043;-76
2023/05/16 06:14:31;;;;;;;0.10;0.10;;;;;;;;;;4940498;28;20130;-76
2023/05/16 06:17:16;;;;;;;0.10;0.10;;;;;;;;;;4940502;28;20125;-76
2023/05/16 06:20:02;;;;;;;0.10;0.10;;;;;;;;;;4937500;28;20055;-77
2023/05/16 06:22:48;;;;;;;0.10;0.10;;;;;;;;;;4938922;28;20368;-76
2023/05/16 06:25:34;;;;;;;0.10;0.10;;;;;;;;;;4939173;28;20512;-76
2023/05/16 06:28:19;;;;;;;0.10;0.10;;;;;;;;;;4944927;28;20714;-76
2023/05/16 06:31:05;;;;;;;0.10;0.10;;;;;;;;;;4960969;28;20042;-76
2023/05/16 06:33:51;;;;;;;0.10;0.10;;;;;;;;;;4958304;28;20047;-75
2023/05/16 06:36:37;;;;;;;0.10;0.10;;;;;;;;;;4959604;28;20074;-76
2023/05/16 06:39:22;;;;;;;0.10;0.10;;;;;;;;;;4959422;28;20112;-76
2023/05/16 06:42:11;;;;;;;0.20;0.20;;;;;;;;;;4959476;28;20092;-76
2023/05/16 06:44:57;;;;;;;0.10;0.10;;;;;;;;;;4958980;28;20035;-76
2023/05/16 06:47:43;;;;;;;0.10;0.10;;;;;;;;;;4959157;28;20044;-76
2023/05/16 06:50:28;;;;;;;0.10;0.10;;;;;;;;;;4958168;28;20043;-76
2023/05/16 06:53:14;;;;;;;0.10;0.10;;;;;;;;;;4958711;28;20133;-76
2023/05/16 06:56:00;;;;;;;0.10;0.10;;;;;;;;;;4960227;28;20145;-76
2023/05/16 06:58:46;;;;;;;0.13;0.13;;;;;;;;;;4957386;28;20041;-76
2023/05/16 07:01:31;;;;;;;0.10;0.10;;;;;;;;;;4956205;28;20055;-76
2023/05/16 07:04:17;;;;;;;0.10;0.10;;;;;;;;;;4956600;28;20035;-76
2023/05/16 07:07:03;;;;;;;0.10;0.10;;;;;;;;;;4961087;28;20546;-76
2023/05/16 07:09:49;;;;;;;0.10;0.10;;;;;;;;;;4957972;28;20085;-76
2023/05/16 07:12:38;;;;;;;0.10;0.10;;;;;;;;;;4958108;28;20459;-76
2023/05/16 07:15:24;;;;;;;0.10;0.10;;;;;;;;;;4958910;28;20037;-76
2023/05/16 07:18:10;;;;;;;0.10;0.10;;;;;;;;;;4958996;28;20134;-76
2023/05/16 07:20:55;;;;;;;0.10;0.10;;;;;;;;;;4958558;28;20122;-76
2023/05/16 07:23:41;;;;;;;0.10;0.10;;;;;;;;;;4942145;28;20557;-76
2023/05/16 07:26:27;;;;;;;0.10;0.10;;;;;;;;;;4957123;28;20138;-76
2023/05/16 07:29:13;;;;;;;0.10;0.10;;;;;;;;;;4957014;28;20094;-76
2023/05/16 07:31:58;;;;;;;0.10;0.10;;;;;;;;;;4958670;28;20050;-76
2023/05/16 07:34:44;;;;;;;0.10;0.10;;;;;;;;;;4957164;28;20034;-76
2023/05/16 07:37:30;;;;;;;0.10;0.10;;;;;;;;;;4958619;28;20101;-76
2023/05/16 07:40:17;;;;;;;0.10;0.10;;;;;;;;;;4958908;28;20085;-76
2023/05/16 07:43:03;;;;;;;0.10;0.10;;;;;;;;;;4956195;28;20057;-76
2023/05/16 07:45:48;;;;;;;0.17;0.17;;;;;;;;;;4958611;28;20499;-76
2023/05/16 07:48:34;;;;;;;0.10;0.10;;;;;;;;;;4956599;28;20282;-78
2023/05/16 07:51:20;;;;;;;0.10;0.10;;;;;;;;;;4959058;28;20041;-78
2023/05/16 07:54:06;;;;;;;0.15;0.15;;;;;;;;;;4957389;28;20110;-76
2023/05/16 07:56:51;;;;;;;0.10;0.10;;;;;;;;;;4958135;28;20035;-76
2023/05/16 07:59:37;;;;;;;0.15;0.15;;;;;;;;;;4957591;28;20071;-77
2023/05/16 08:02:29;;;;;;;0.10;0.10;;;;;;;;;;4956435;28;20031;-76
2023/05/16 08:05:15;;;;;;;0.10;0.10;;;;;;;;;;4942674;28;20183;-77
2023/05/16 08:08:00;;;;;;;0.20;0.20;;;;;;;;;;4955889;28;20042;-77
2023/05/16 08:10:46;;;;;;;0.10;0.10;;;;;;;;;;4957695;28;20038;-75
2023/05/16 08:13:32;;;;;;;0.20;0.20;;;;;;;;;;4957492;28;20066;-77
2023/05/16 08:16:18;;;;;;;0.10;0.10;;;;;;;;;;4958359;28;20073;-77
2023/05/16 08:19:03;;;;;;;0.20;0.20;;;;;;;;;;4957190;28;20041;-76
2023/05/16 08:21:49;;;;;;;0.20;0.20;;;;;;;;;;4957497;28;20135;-77
2023/05/16 08:24:35;;;;;;;0.15;0.15;;;;;;;;;;4956944;28;20086;-78
2023/05/16 08:27:20;;;;;;;0.20;0.20;;;;;;;;;;4958548;28;20526;-77
2023/05/16 08:30:06;;;;;;;0.20;0.20;;;;;;;;;;4956120;28;20854;-77
2023/05/16 08:32:52;;;;;;;0.10;0.10;;;;;;;;;;4954672;28;20833;-77
2023/05/16 08:35:42;;;;;;;0.20;0.20;;;;;;;;;;4926496;28;20027;-77
2023/05/16 08:38:27;;;;;;;0.20;0.20;;;;;;;;;;4953296;28;20058;-78
2023/05/16 08:41:13;;;;;;;0.10;0.10;;;;;;;;;;4957726;28;20027;-78
2023/05/16 08:43:59;;;;;;;0.10;0.10;;;;;;;;;;4955062;28;20075;-78
2023/05/16 08:46:47;;;;;;;0.10;0.10;;;;;;;;;;4953973;28;20571;-78
2023/05/16 08:49:33;;;;;;;0.20;0.20;;;;;;;;;;4951926;28;20043;-77
2023/05/16 08:52:20;;;;;;;0.20;0.20;;;;;;;;;;4942005;28;20133;-77
2023/05/16 08:55:09;;;;;;;0.20;0.20;;;;;;;;;;4956860;28;20038;-78
2023/05/16 08:57:54;;;;;;;0.13;0.13;;;;;;;;;;4941982;28;20205;-77
2023/05/16 09:00:41;;;;;;;0.10;0.10;;;;;;;;;;4940374;28;20534;-77
2023/05/16 09:03:27;;;;;;;0.10;0.10;;;;;;;;;;4955230;28;20085;-78
2023/05/16 09:06:13;;;;;;;0.10;0.10;;;;;;;;;;4957116;28;20034;-78
2023/05/16 09:08:59;;;;;;;0.10;0.10;;;;;;;;;;4952696;28;20409;-78
2023/05/16 09:11:45;;;;;;;0.20;0.20;;;;;;;;;;4956598;28;20030;-78
2023/05/16 09:14:31;;;;;;;0.17;0.17;;;;;;;;;;4943155;28;20357;-78
2023/05/16 09:17:16;;;;;;;0.10;0.10;;;;;;;;;;4955782;28;20633;-78
2023/05/16 09:20:13;;;;;;;0.10;0.10;;;;;;;;;;4954881;28;20031;-77
2023/05/16 09:22:58;;;;;;;0.15;0.15;;;;;;;;;;4957308;28;20030;-77
2023/05/16 09:25:45;;;;;;;0.20;0.20;;;;;;;;;;4956508;28;20442;-78
2023/05/16 09:28:31;;;;;;;0.10;0.10;;;;;;;;;;4934234;28;20058;-78
2023/05/16 09:31:23;;;;;;;0.10;0.10;;;;;;;;;;4935520;28;20047;-78
2023/05/16 09:34:12;;;;;;;0.10;0.10;;;;;;;;;;4938253;28;20814;-77
2023/05/16 09:36:58;;;;;;;0.20;0.20;;;;;;;;;;4938189;28;20038;-77
2023/05/16 09:39:48;;;;;;;0.10;0.10;;;;;;;;;;4937446;28;20069;-77
2023/05/16 09:42:34;;;;;;;0.10;0.10;;;;;;;;;;4936769;28;20043;-77
2023/05/16 09:45:20;;;;;;;0.10;0.10;;;;;;;;;;4939483;28;20472;-77
2023/05/16 09:48:07;;;;;;;0.10;0.10;;;;;;;;;;4938990;28;20070;-78
2023/05/16 09:50:53;;;;;;;0.10;0.10;;;;;;;;;;4941997;28;20040;-77
2023/05/16 09:53:40;;;;;;;0.10;0.10;;;;;;;;;;4939623;28;20045;-77
2023/05/16 09:56:26;;;;;;;0.17;0.17;;;;;;;;;;4940232;28;20074;-78
2023/05/16 09:59:13;;;;;;;0.10;0.10;;;;;;;;;;4939648;28;20492;-77
2023/05/16 10:01:59;;;;;;;0.10;0.10;;;;;;;;;;4940584;28;20043;-77
2023/05/16 10:04:45;;;;;;;0.10;0.10;;;;;;;;;;4939297;28;20043;-77
2023/05/16 10:07:32;;;;;;;0.10;0.10;;;;;;;;;;4940665;28;20054;-78
2023/05/16 10:10:19;;;;;;;0.20;0.20;;;;;;;;;;4939970;28;20043;-77
2023/05/16 10:13:07;;;;;;;0.20;0.20;;;;;;;;;;4927271;28;20038;-78
2023/05/16 10:15:54;;;;;;;0.10;0.10;;;;;;;;;;4942555;28;20058;-78
2023/05/16 10:18:41;;;;;;;0.20;0.20;;;;;;;;;;4940433;28;20484;-77
2023/05/16 10:21:27;;;;;;;0.10;0.10;;;;;;;;;;4939117;28;20043;-77
2023/05/16 10:24:16;;;;;;;0.10;0.10;;;;;;;;;;4939393;28;20070;-77
2023/05/16 10:27:02;;;;;;;0.15;0.15;;;;;;;;;;4941399;28;20036;-77
2023/05/16 10:29:48;;;;;;;0.10;0.10;;;;;;;;;;4956180;28;20078;-77
2023/05/16 10:32:35;;;;;;;0.10;0.10;;;;;;;;;;4958321;28;20503;-78
2023/05/16 10:35:21;;;;;;;0.20;0.20;;;;;;;;;;4929147;28;20043;-77
2023/05/16 10:38:11;;;;;;;0.15;0.15;;;;;;;;;;4957376;28;20204;-77
2023/05/16 10:40:57;;;;;;;0.10;0.10;;;;;;;;;;4960350;28;20038;-78
2023/05/16 10:43:55;;;;;;;0.10;0.10;;;;;;;;;;4958509;28;20074;-78
2023/05/16 10:46:40;;;;;;;0.17;0.17;;;;;;;;;;4923799;28;20045;-78
2023/05/16 10:49:26;;;;;;;0.20;0.20;;;;;;;;;;4958463;28;20042;-78
2023/05/16 10:52:14;;;;;;;0.20;0.20;;;;;;;;;;4958200;28;20035;-78
2023/05/16 10:55:01;;;;;;;0.10;0.10;;;;;;;;;;4957374;28;20038;-78
2023/05/16 10:57:47;;;;;;;0.20;0.20;;;;;;;;;;4958227;28;20542;-78
2023/05/16 11:00:32;;;;;;;0.20;0.20;;;;;;;;;;4959572;28;20062;-78
2023/05/16 11:03:23;;;;;;;0.20;0.20;;;;;;;;;;4957235;28;20042;-78
2023/05/16 11:06:10;;;;;;;0.20;0.20;;;;;;;;;;4959832;28;20116;-78
2023/05/16 11:09:05;;;;;;;0.10;0.10;;;;;;;;;;4957696;28;20038;-78
2023/05/16 11:11:51;;;;;;;0.20;0.10;;;;;;;;;;4958411;28;20042;-78
2023/05/16 11:14:46;;;;;;;0.10;0.10;;;;;;;;;;4955406;28;20113;-78
2023/05/16 11:17:37;;;;;;;0.20;0.20;;;;;;;;;;4958036;28;20043;-78
2023/05/16 11:20:29;;;;;;;0.30;0.30;;;;;;;;;;4957691;28;20038;-78
2023/05/16 11:23:21;;;;;;;;;;;;;;;;;;4956192;28;20121;-78
2023/05/16 11:26:06;;;;;;;0.17;0.17;;;;;;;;;;4958115;28;19910;-78
2023/05/16 11:28:52;;;;;;;0.20;0.20;;;;;;;;;;4957893;28;20082;-78
2023/05/16 11:31:39;;;;;;;0.20;0.20;;;;;;;;;;4955935;28;20035;-78
2023/05/16 11:34:24;;;;;;;0.20;0.20;;;;;;;;;;4956166;28;20335;-78
2023/05/16 11:37:11;;;;;;;0.20;0.20;;;;;;;;;;4942190;28;20542;-78
2023/05/16 11:40:00;;;;;;;0.20;0.20;;;;;;;;;;4957161;28;20042;-79
2023/05/16 11:42:47;;;;;;;0.30;0.30;;;;;;;;;;4943128;28;20326;-78
2023/05/16 11:45:33;;;;;;;0.10;0.10;;;;;;;;;;4956673;28;20066;-77
2023/05/16 11:48:19;;;;;;;0.20;0.20;;;;;;;;;;4953920;28;20046;-78
2023/05/16 11:51:05;;;;;;;0.30;0.30;;;;;;;;;;4959707;28;20039;-78
2023/05/16 11:53:51;;;;;;;0.10;0.10;;;;;;;;;;4954915;28;20086;-78
2023/05/16 11:56:36;;;;;;;0.15;0.15;;;;;;;;;;4956989;28;20031;-78
2023/05/16 11:59:22;;;;;;;0.20;0.20;;;;;;;;;;4928610;28;20118;-78
2023/05/16 12:02:08;;;;;;;0.20;0.20;;;;;;;;;;4956101;28;20033;-78
2023/05/16 12:04:55;;;;;;;0.20;0.20;;;;;;;;;;4941292;28;20129;-78
2023/05/16 12:07:44;;;;;;;0.28;0.28;;;;;;;;;;4940169;28;20461;-78
2023/05/16 12:10:33;;;;;;;0.20;0.20;;;;;;;;;;4957204;28;20144;-78
2023/05/16 12:13:19;;;;;;;0.20;0.20;;;;;;;;;;4954819;28;20053;-78
2023/05/16 12:16:05;;;;;;;0.20;0.20;;;;;;;;;;4942929;28;20034;-78
2023/05/16 12:18:51;;;;;;;0.20;0.20;;;;;;;;;;4940962;28;20125;-78
2023/05/16 12:21:37;;;;;;;0.20;0.20;;;;;;;;;;4957086;28;20038;-78
2023/05/16 12:24:28;;;;;;;0.10;0.10;;;;;;;;;;4954517;28;20570;-78
2023/05/16 12:27:20;;;;;;;0.10;0.10;;;;;;;;;;4953107;28;20038;-78
2023/05/16 12:30:07;;;;;;;0.20;0.20;;;;;;;;;;4957202;28;20041;-77
2023/05/16 12:32:59;;;;;;;0.10;0.10;;;;;;;;;;4940500;28;20041;-78
2023/05/16 12:35:46;;;;;;;0.10;0.10;;;;;;;;;;4957846;28;20113;-77
2023/05/16 12:38:32;;;;;;;0.20;0.20;;;;;;;;;;4955771;28;20501;-77
2023/05/16 12:41:18;;;;;;;0.30;0.30;;;;;;;;;;4956986;28;20520;-78
2023/05/16 12:44:15;;;;;;;0.15;0.15;;;;;;;;;;4957118;28;20030;-78
2023/05/16 12:47:01;;;;;;;0.10;0.10;;;;;;;;;;4940447;28;20170;-78
2023/05/16 12:49:48;;;;;;;0.20;0.20;;;;;;;;;;4953979;28;20046;-78
2023/05/16 12:52:34;;;;;;;0.10;0.10;;;;;;;;;;4942089;28;20225;-79
2023/05/16 12:55:20;;;;;;;0.20;0.20;;;;;;;;;;4953867;28;20047;-79
2023/05/16 12:58:07;;;;;;;0.10;0.10;;;;;;;;;;4955586;28;20070;-78
2023/05/16 13:00:52;;;;;;;0.20;0.20;;;;;;;;;;4955021;28;20122;-78
2023/05/16 13:03:39;;;;;;;0.20;0.20;;;;;;;;;;4955785;28;20031;-77
2023/05/16 13:06:25;;;;;;;0.20;0.20;;;;;;;;;;4956580;28;20035;-78
2023/05/16 13:09:11;;;;;;;0.10;0.10;;;;;;;;;;4953659;28;20129;-78
2023/05/16 13:11:57;;;;;;;0.30;0.30;;;;;;;;;;4955207;28;20070;-78
2023/05/16 13:14:44;;;;;;;0.20;0.20;;;;;;;;;;4953581;28;20129;-78
2023/05/16 13:17:29;;;;;;;0.10;0.10;;;;;;;;;;4957509;28;20587;-78
2023/05/16 13:20:16;;;;;;;0.10;0.10;;;;;;;;;;4958931;28;20117;-78
2023/05/16 13:23:01;;;;;;;0.20;0.20;;;;;;;;;;4945238;28;20062;-78
2023/05/16 13:25:47;;;;;;;0.10;0.10;;;;;;;;;;4959962;28;20046;-79
2023/05/16 13:28:33;;;;;;;0.10;0.10;;;;;;;;;;4944388;28;20526;-78
2023/05/16 13:31:20;;;;;;;0.20;0.20;;;;;;;;;;4959647;28;20035;-77
2023/05/16 13:34:05;;;;;;;0.20;0.20;;;;;;;;;;4947668;28;20045;-78
2023/05/16 13:36:51;;;;;;;0.20;0.20;;;;;;;;;;4965594;28;20034;-79
2023/05/16 13:39:37;;;;;;;0.20;0.20;;;;;;;;;;4961077;28;20050;-78
2023/05/16 13:42:23;;;;;;;0.20;0.20;;;;;;;;;;4957657;28;20060;-78
2023/05/16 13:45:11;;;;;;;0.10;0.10;;;;;;;;;;4959581;28;20539;-78
2023/05/16 13:47:57;;;;;;;0.10;0.10;;;;;;;;;;4929072;28;20045;-78
2023/05/16 13:50:43;;;;;;;0.10;0.10;;;;;;;;;;4942056;28;20598;-77
2023/05/16 13:53:28;;;;;;;0.10;0.10;;;;;;;;;;4956625;28;20039;-78
2023/05/16 13:56:15;;;;;;;0.10;0.10;;;;;;;;;;4958381;28;20030;-78
2023/05/16 13:59:01;;;;;;;0.10;0.10;;;;;;;;;;4959864;28;20569;-78
2023/05/16 14:01:47;;;;;;;0.10;0.10;;;;;;;;;;4933072;28;20476;-78
2023/05/16 14:04:32;;;;;;;0.10;0.10;;;;;;;;;;4958730;28;20063;-78
2023/05/16 14:07:18;;;;;;;0.10;0.10;;;;;;;;;;4958188;28;20551;-78
2023/05/16 14:10:05;;;;;;;0.10;0.10;;;;;;;;;;4959365;28;20601;-78
2023/05/16 14:12:51;;;;;;;0.10;0.10;;;;;;;;;;4957671;28;20106;-79
2023/05/16 14:15:37;;;;;;;0.10;0.10;;;;;;;;;;4959856;28;20026;-78
2023/05/16 14:18:22;;;;;;;0.10;0.10;;;;;;;;;;4956780;28;20182;-78
2023/05/16 14:21:09;;;;;;;0.10;0.10;;;;;;;;;;4959272;28;20071;-78
2023/05/16 14:23:56;;;;;;;0.10;0.10;;;;;;;;;;4959069;28;20035;-78
2023/05/16 14:26:42;;;;;;;0.10;0.10;;;;;;;;;;4959329;28;20042;-77
2023/05/16 14:29:28;;;;;;;0.10;0.10;;;;;;;;;;4957166;28;20581;-77
2023/05/16 14:32:14;;;;;;;0.10;0.10;;;;;;;;;;4957865;28;20345;-77
2023/05/16 14:34:59;;;;;;;0.10;0.10;;;;;;;;;;4959907;28;20522;-77
2023/05/16 14:37:45;;;;;;;0.10;0.10;;;;;;;;;;4957355;28;20039;-77
2023/05/16 14:40:31;;;;;;;0.10;0.10;;;;;;;;;;4959126;28;20094;-78
2023/05/16 14:43:17;;;;;;;0.10;0.10;;;;;;;;;;4955960;28;20093;-77
2023/05/16 14:46:03;;;;;;;0.10;0.10;;;;;;;;;;4956525;28;20035;-77
2023/05/16 14:48:49;;;;;;;0.10;0.10;;;;;;;;;;4955131;28;20034;-77
2023/05/16 14:51:35;;;;;;;0.10;0.10;;;;;;;;;;4957264;28;20046;-77
2023/05/16 14:54:21;;;;;;;0.10;0.10;;;;;;;;;;4958204;28;20066;-77
2023/05/16 14:57:07;;;;;;;0.10;0.10;;;;;;;;;;4957978;28;20392;-77
2023/05/16 14:59:53;;;;;;;0.10;0.10;;;;;;;;;;4952549;28;20827;-76
2023/05/16 15:02:38;;;;;;;0.20;0.20;;;;;;;;;;4957155;28;20053;-76
2023/05/16 15:05:24;;;;;;;0.20;0.20;;;;;;;;;;4958727;28;20037;-76
2023/05/16 15:08:10;;;;;;;0.28;0.28;;;;;;;;;;4956834;28;20038;-76
2023/05/16 15:10:56;;;;;;;0.13;0.13;;;;;;;;;;4958226;28;20077;-76
2023/05/16 15:13:42;;;;;;;0.20;0.20;;;;;;;;;;4957131;28;20030;-77
2023/05/16 15:16:28;;;;;;;0.22;0.22;;;;;;;;;;4958591;28;20543;-76
2023/05/16 15:19:14;;;;;;;0.20;0.20;;;;;;;;;;4958040;28;20437;-76
2023/05/16 15:22:01;;;;;;;0.10;0.10;;;;;;;;;;4960749;28;20042;-76
2023/05/16 15:24:46;;;;;;;0.10;0.10;;;;;;;;;;4957753;28;20125;-76
2023/05/16 15:27:32;;;;;;;0.10;0.10;;;;;;;;;;4958037;28;20070;-76
2023/05/16 15:30:18;;;;;;;0.13;0.13;;;;;;;;;;4939399;28;20102;-76
2023/05/16 15:33:03;;;;;;;0.10;0.10;;;;;;;;;;4937912;28;20094;-76
2023/05/16 15:35:50;;;;;;;0.10;0.10;;;;;;;;;;4937917;28;20063;-76
2023/05/16 15:38:36;;;;;;;0.10;0.10;;;;;;;;;;4936485;28;20078;-75
2023/05/16 15:41:22;;;;;;;0.10;0.10;;;;;;;;;;4938395;28;20047;-76
2023/05/16 15:44:08;;;;;;;0.20;0.20;;;;;;;;;;4937648;28;20039;-75
2023/05/16 15:46:53;;;;;;;0.17;0.17;;;;;;;;;;4937696;28;20054;-75
2023/05/16 15:49:39;;;;;;;0.10;0.10;;;;;;;;;;4923560;28;20052;-75
2023/05/16 15:52:25;;;;;;;0.10;0.10;;;;;;;;;;4936399;28;20065;-76
2023/05/16 15:55:10;;;;;;;0.10;0.10;;;;;;;;;;4938674;28;20158;-76
2023/05/16 15:57:57;;;;;;;0.10;0.10;;;;;;;;;;4936611;28;20508;-75
2023/05/16 16:00:44;;;;;;;0.10;0.10;;;;;;;;;;4936096;28;20031;-76
2023/05/16 16:03:30;;;;;;;0.15;0.15;;;;;;;;;;4936402;28;20547;-76
2023/05/16 16:06:15;;;;;;;0.10;0.10;;;;;;;;;;4938164;28;20457;-76
2023/05/16 16:09:01;;;;;;;0.10;0.10;;;;;;;;;;4930452;28;20126;-76
2023/05/16 16:11:48;;;;;;;0.10;0.10;;;;;;;;;;4936493;28;20066;-76
2023/05/16 16:14:34;;;;;;;0.10;0.10;;;;;;;;;;4936912;28;20062;-75
2023/05/16 16:17:20;;;;;;;0.10;0.10;;;;;;;;;;4937286;28;20194;-76
2023/05/16 16:20:05;;;;;;;0.20;0.20;;;;;;;;;;4938708;28;20034;-78
2023/05/16 16:22:51;;;;;;;0.20;0.20;;;;;;;;;;4936559;28;20582;-78
2023/05/16 16:25:37;;;;;;;0.10;0.10;;;;;;;;;;4937505;28;20063;-77
2023/05/16 16:28:23;;;;;;;0.10;0.10;;;;;;;;;;4937051;28;20059;-76
2023/05/16 16:31:08;;;;;;;0.10;0.10;;;;;;;;;;4938481;28;20050;-76
2023/05/16 16:33:54;;;;;;;0.10;0.10;;;;;;;;;;4937170;28;20463;-77
2023/05/16 16:36:41;;;;;;;0.10;0.10;;;;;;;;;;4936776;28;20066;-76
2023/05/16 16:39:26;;;;;;;0.10;0.10;;;;;;;;;;4936777;28;20269;-77